Time;durP1;ratioP1;P1;durP2;ratioP2;P2;SDS_P1;SDS_P2;PMS_P1;PMS_P2;Temp;Humidity;BMP_temperature;BMP_pressure;BME280_temperature;BME280_humidity;BME280_pressure;Samples;Min_cycle;Max_cycle;Signal;HPM_P1;HPM_P2
2021/05/10 00:01:36;;;;;;;5.05;3.17;;;;;;;13.33;47.55;99948.59;5047118;28;20178;-70
2021/05/10 00:04:03;;;;;;;5.07;3.10;;;;;;;13.29;47.62;99939.16;5046488;28;20728;-68
2021/05/10 00:06:29;;;;;;;6.22;4.32;;;;;;;13.24;47.63;99941.41;5046956;28;20361;-70
2021/05/10 00:08:57;;;;;;;4.85;2.95;;;;;;;13.20;47.74;99941.69;5046521;28;20430;-66
2021/05/10 00:11:24;;;;;;;4.20;2.95;;;;;;;13.16;47.83;99940.28;5047671;28;20673;-67
2021/05/10 00:13:53;;;;;;;4.97;3.28;;;;;;;13.14;47.64;99947.53;5047325;28;20128;-67
2021/05/10 00:16:19;;;;;;;5.28;3.15;;;;;;;13.13;47.94;99950.31;5045715;28;20049;-70
2021/05/10 00:18:45;;;;;;;7.63;3.47;;;;;;;13.10;47.72;99940.81;5046979;28;20052;-68
2021/05/10 00:21:12;;;;;;;6.60;3.70;;;;;;;13.09;47.96;99941.81;5047120;28;20061;-67
2021/05/10 00:23:39;;;;;;;7.13;4.65;;;;;;;13.08;48.08;99944.59;5044520;28;20053;-68
2021/05/10 00:26:05;;;;;;;6.35;3.15;;;;;;;13.07;47.98;99950.84;5046777;28;20049;-69
2021/05/10 00:28:33;;;;;;;5.40;3.00;;;;;;;13.06;47.96;99951.84;5047183;28;20401;-67
2021/05/10 00:30:59;;;;;;;7.50;3.90;;;;;;;13.05;48.17;99948.31;5045769;28;20053;-70
2021/05/10 00:33:26;;;;;;;5.75;3.42;;;;;;;13.01;48.27;99949.56;5046673;28;20111;-68
2021/05/10 00:35:53;;;;;;;6.90;4.00;;;;;;;12.98;48.36;99945.38;5047299;28;20049;-68
2021/05/10 00:38:20;;;;;;;7.18;4.05;;;;;;;12.98;48.29;99947.19;5046229;28;20167;-66
2021/05/10 00:40:46;;;;;;;5.72;3.45;;;;;;;12.97;48.23;99942.88;5046166;28;20045;-69
2021/05/10 00:43:13;;;;;;;6.80;4.30;;;;;;;12.95;48.35;99939.53;5046628;28;20041;-68
2021/05/10 00:45:41;;;;;;;5.07;3.42;;;;;;;12.96;48.34;99947.34;5045576;28;20052;-71
2021/05/10 00:48:08;;;;;;;4.65;3.25;;;;;;;12.94;48.27;99943.13;5046300;28;20075;-66
2021/05/10 00:50:35;;;;;;;5.97;3.63;;;;;;;12.92;48.41;99943.25;5045435;28;20061;-66
2021/05/10 00:53:01;;;;;;;6.63;3.55;;;;;;;12.91;48.50;99941.59;5044832;28;20096;-68
2021/05/10 00:55:28;;;;;;;7.20;2.95;;;;;;;12.91;48.53;99940.75;5045283;28;20409;-70
2021/05/10 00:58:01;;;;;;;4.68;3.10;;;;;;;12.90;48.53;99939.91;5046191;28;20618;-67
2021/05/10 01:00:28;;;;;;;6.55;3.42;;;;;;;12.88;48.45;99941.03;5045413;28;20550;-68
2021/05/10 01:02:56;;;;;;;6.88;3.55;;;;;;;12.85;48.57;99935.97;5044811;28;20045;-68
2021/05/10 01:05:23;;;;;;;7.57;4.13;;;;;;;12.82;48.84;99943.22;5044535;28;20565;-67
2021/05/10 01:07:49;;;;;;;6.47;3.25;;;;;;;12.81;48.64;99946.84;5044429;28;20045;-69
2021/05/10 01:10:18;;;;;;;4.60;2.53;;;;;;;12.78;48.79;99941.84;5045447;28;20060;-67
2021/05/10 01:12:45;;;;;;;6.00;3.40;;;;;;;12.77;48.83;99934.84;5044932;28;20079;-67
2021/05/10 01:15:13;;;;;;;4.90;3.67;;;;;;;12.75;48.88;99934.13;5044585;28;20055;-68
2021/05/10 01:17:41;;;;;;;7.68;2.88;;;;;;;12.72;48.93;99930.91;5046060;28;20079;-68
2021/05/10 01:20:12;;;;;;;5.05;3.08;;;;;;;12.69;49.15;99926.69;5045221;28;20048;-68
2021/05/10 01:22:44;;;;;;;6.95;3.10;;;;;;;12.66;48.92;99928.78;5044220;28;20053;-69
2021/05/10 01:25:14;;;;;;;4.18;3.25;;;;;;;12.62;49.17;99922.91;5045628;28;20041;-67
2021/05/10 01:27:41;;;;;;;4.28;2.78;;;;;;;12.59;49.28;99929.31;5045018;28;20377;-70
2021/05/10 01:30:10;;;;;;;4.80;3.10;;;;;;;12.59;49.32;99931.13;5045869;28;20052;-71
2021/05/10 01:32:36;;;;;;;7.45;3.03;;;;;;;12.57;49.27;99930.44;5046000;28;20045;-70
2021/05/10 01:35:05;;;;;;;6.80;2.60;;;;;;;12.55;49.21;99922.63;5044828;28;20090;-68
2021/05/10 01:37:31;;;;;;;6.47;3.17;;;;;;;12.54;49.41;99923.56;5045555;28;20056;-67
2021/05/10 01:39:59;;;;;;;5.75;3.60;;;;;;;12.54;49.65;99925.41;5045613;28;20041;-70
2021/05/10 01:42:25;;;;;;;4.70;3.30;;;;;;;12.51;49.65;99923.81;5045023;28;20049;-68
2021/05/10 01:44:51;;;;;;;7.28;3.38;;;;;;;12.47;49.65;99926.88;5045009;28;20059;-65
2021/05/10 01:47:18;;;;;;;6.50;3.38;;;;;;;12.45;49.73;99934.13;5044986;28;20127;-67
2021/05/10 01:49:46;;;;;;;6.05;3.10;;;;;;;12.40;49.89;99930.03;5045219;28;20056;-68
2021/05/10 01:52:14;;;;;;;5.40;3.67;;;;;;;12.37;49.79;99924.16;5043465;28;20056;-69
2021/05/10 01:54:41;;;;;;;6.47;3.28;;;;;;;12.33;49.89;99936.00;5045760;28;20045;-69
2021/05/10 01:57:10;;;;;;;6.80;3.42;;;;;;;12.27;50.13;99932.06;5045875;28;20591;-68
2021/05/10 01:59:37;;;;;;;5.18;3.88;;;;;;;12.20;50.35;99938.84;5045749;28;20057;-70
2021/05/10 02:02:04;;;;;;;6.70;3.50;;;;;;;12.16;50.33;99942.75;5043402;28;20048;-70
2021/05/10 02:04:30;;;;;;;5.65;3.42;;;;;;;12.14;50.44;99936.75;5045577;28;20102;-71
2021/05/10 02:07:01;;;;;;;6.93;3.58;;;;;;;12.13;50.47;99941.16;5045437;28;21118;-69
2021/05/10 02:09:28;;;;;;;5.72;3.63;;;;;;;12.09;50.45;99937.09;5045483;28;20056;-68
2021/05/10 02:11:54;;;;;;;7.55;3.83;;;;;;;12.03;50.53;99941.13;5045435;28;20055;-69
2021/05/10 02:14:21;;;;;;;5.10;2.92;;;;;;;11.99;50.84;99950.28;5046597;28;20079;-68
2021/05/10 02:16:48;;;;;;;7.15;3.72;;;;;;;11.95;50.86;99950.66;5046077;28;20635;-67
2021/05/10 02:19:14;;;;;;;7.20;3.85;;;;;;;11.90;50.76;99961.59;5046837;28;20056;-67
2021/05/10 02:21:41;;;;;;;8.13;4.05;;;;;;;11.87;50.93;99964.50;5045250;28;20710;-68
2021/05/10 02:24:08;;;;;;;9.77;3.60;;;;;;;11.81;51.27;99957.06;5043452;28;20049;-67
2021/05/10 02:26:35;;;;;;;6.97;3.53;;;;;;;11.75;51.43;99958.41;5045368;28;20049;-67
2021/05/10 02:29:02;;;;;;;9.60;4.55;;;;;;;11.70;51.33;99965.88;5044620;28;20053;-67
2021/05/10 02:31:30;;;;;;;4.25;3.78;;;;;;;11.63;51.61;99967.34;5045295;28;20049;-70
2021/05/10 02:33:56;;;;;;;6.18;3.30;;;;;;;11.61;51.92;99962.19;5045366;28;20192;-67
2021/05/10 02:36:23;;;;;;;5.50;3.40;;;;;;;11.47;52.22;99970.41;5044186;28;20056;-68
2021/05/10 02:38:49;;;;;;;6.07;3.78;;;;;;;11.42;52.31;99973.41;5045281;28;20067;-69
2021/05/10 02:41:16;;;;;;;7.93;4.68;;;;;;;11.37;52.41;99972.94;5044913;28;20654;-68
2021/05/10 02:43:42;;;;;;;8.40;4.28;;;;;;;11.32;52.67;99966.34;5044803;28;20045;-69
2021/05/10 02:46:09;;;;;;;6.05;5.38;;;;;;;11.31;52.69;99969.94;5044021;28;20049;-69
2021/05/10 02:48:36;;;;;;;7.88;3.90;;;;;;;11.35;52.63;99976.69;5045712;28;20118;-68
2021/05/10 02:51:03;;;;;;;6.32;4.18;;;;;;;11.33;52.59;99978.63;5043829;28;20051;-68
2021/05/10 02:53:29;;;;;;;6.18;3.78;;;;;;;11.31;52.56;99977.88;5042860;28;20052;-69
2021/05/10 02:55:55;;;;;;;4.85;3.08;;;;;;;11.26;52.72;99978.25;5048102;28;20053;-67
2021/05/10 02:58:22;;;;;;;7.15;3.17;;;;;;;11.24;52.92;99985.47;5048302;28;20067;-68
2021/05/10 03:00:48;;;;;;;7.60;3.53;;;;;;;11.23;52.77;99989.91;5047925;28;20049;-67
2021/05/10 03:03:15;;;;;;;5.65;3.42;;;;;;;11.22;52.73;99990.88;5047901;28;20049;-68
2021/05/10 03:05:42;;;;;;;6.53;3.25;;;;;;;11.22;52.77;99992.69;5047399;28;20045;-68
2021/05/10 03:08:09;;;;;;;5.43;3.33;;;;;;;11.18;52.73;100000.03;5048826;28;20045;-68
2021/05/10 03:10:35;;;;;;;7.10;4.43;;;;;;;11.17;53.06;100000.97;5048678;28;20048;-67
2021/05/10 03:13:03;;;;;;;6.28;4.10;;;;;;;11.14;53.11;99997.72;5047596;28;20125;-69
2021/05/10 03:15:32;;;;;;;8.73;4.38;;;;;;;11.16;52.92;100003.72;5048067;28;20045;-68
2021/05/10 03:17:59;;;;;;;4.50;3.78;;;;;;;11.15;53.22;100008.19;5029318;28;20153;-71
2021/05/10 03:20:26;;;;;;;5.22;3.78;;;;;;;11.13;53.23;100007.47;5047942;28;20060;-68
2021/05/10 03:22:53;;;;;;;6.30;4.00;;;;;;;11.14;53.15;100009.13;5046499;28;20049;-66
2021/05/10 03:25:21;;;;;;;5.47;3.53;;;;;;;11.15;52.92;100013.47;5048357;28;20154;-68
2021/05/10 03:27:49;;;;;;;4.53;3.67;;;;;;;11.16;53.04;100001.91;5047235;28;20078;-67
2021/05/10 03:30:17;;;;;;;4.82;3.35;;;;;;;11.15;53.20;100013.47;5047737;28;20049;-68
2021/05/10 03:32:43;;;;;;;6.68;3.60;;;;;;;11.16;53.25;100014.31;5047522;28;20134;-68
2021/05/10 03:35:11;;;;;;;6.22;3.55;;;;;;;11.17;53.32;100011.53;5047274;28;20789;-68
2021/05/10 03:37:40;;;;;;;9.15;4.78;;;;;;;11.19;52.96;100017.53;5047280;28;20060;-67
2021/05/10 03:40:12;;;;;;;9.02;3.85;;;;;;;11.22;53.27;100019.97;5046190;28;20071;-70
2021/05/10 03:42:38;;;;;;;4.45;3.30;;;;;;;11.22;53.21;100022.59;5047576;28;20128;-67
2021/05/10 03:45:08;;;;;;;8.25;3.97;;;;;;;11.26;53.26;100018.75;5046441;28;20041;-69
2021/05/10 03:47:39;;;;;;;7.07;3.13;;;;;;;11.31;53.10;100004.31;5047157;28;20041;-70
2021/05/10 03:50:08;;;;;;;8.00;3.80;;;;;;;11.38;53.05;100019.59;5047908;28;20053;-67
2021/05/10 03:52:34;;;;;;;6.22;4.65;;;;;;;11.45;52.98;100019.91;5046848;28;20623;-68
2021/05/10 03:55:01;;;;;;;4.47;2.85;;;;;;;11.50;52.82;100020.38;5048470;28;20118;-68
2021/05/10 03:57:28;;;;;;;5.88;3.42;;;;;;;11.56;52.89;100011.97;5047353;28;20044;-70
2021/05/10 03:59:55;;;;;;;7.45;4.03;;;;;;;11.62;52.67;100014.13;5047608;28;20052;-71
2021/05/10 04:02:22;;;;;;;5.50;3.08;;;;;;;11.71;52.57;100014.34;5047289;28;20122;-70
2021/05/10 04:04:52;;;;;;;4.93;3.03;;;;;;;11.82;52.38;100022.25;5047338;28;20099;-68
2021/05/10 04:15:28;;;;;;;7.63;3.63;;;;;;;12.24;51.91;100023.22;5005402;28;20123;-67
2021/05/10 04:17:54;;;;;;;8.63;3.70;;;;;;;12.30;51.99;100013.06;5003075;28;20052;-68
2021/05/10 04:20:21;;;;;;;6.13;3.60;;;;;;;12.39;51.78;100010.50;5004409;28;20062;-65
2021/05/10 04:22:48;;;;;;;7.43;3.85;;;;;;;12.52;51.46;100012.94;5003151;28;20046;-67
2021/05/10 04:25:15;;;;;;;5.60;3.13;;;;;;;12.67;51.46;100002.84;5002388;28;20050;-70
2021/05/10 04:27:41;;;;;;;6.28;4.35;;;;;;;13.64;49.80;99997.09;4989117;28;20040;-71
2021/05/10 04:30:10;;;;;;;6.65;3.47;;;;;;;15.13;46.85;100002.94;4989168;28;20058;-70
2021/05/10 04:32:38;;;;;;;5.65;3.40;;;;;;;16.45;44.27;100003.28;5005743;28;20041;-72
2021/05/10 04:35:07;;;;;;;3.70;2.33;;;;;;;17.46;42.46;99996.50;5003436;28;20042;-72
2021/05/10 04:37:34;;;;;;;3.92;2.78;;;;;;;18.72;40.24;99997.09;5004484;28;20128;-71
2021/05/10 04:40:00;;;;;;;4.25;2.55;;;;;;;19.78;38.46;99996.88;5004142;28;20080;-68
2021/05/10 04:42:27;;;;;;;6.43;2.65;;;;;;;20.57;37.09;99988.53;5003147;28;20053;-68
2021/05/10 04:44:53;;;;;;;4.57;3.45;;;;;;;21.22;35.84;99983.47;5003476;28;20050;-71
2021/05/10 04:47:20;;;;;;;5.25;3.28;;;;;;;21.72;35.00;99981.81;4999914;28;20053;-69
2021/05/10 04:49:47;;;;;;;4.22;3.05;;;;;;;22.20;34.17;99979.38;5014128;28;20597;-67
2021/05/10 04:52:13;;;;;;;3.53;2.20;;;;;;;22.61;33.18;99981.38;5024212;28;20911;-69
2021/05/10 04:54:41;;;;;;;4.63;2.67;;;;;;;22.96;32.35;99981.38;5026148;28;20053;-71
2021/05/10 04:57:08;;;;;;;4.60;2.05;;;;;;;23.27;31.66;99980.94;5025268;28;20045;-69
2021/05/10 04:59:34;;;;;;;3.80;1.75;;;;;;;23.37;31.13;99977.88;5025952;28;20046;-71
2021/05/10 05:02:04;;;;;;;5.45;3.03;;;;;;;23.52;31.07;99977.72;5025283;28;20053;-69
2021/05/10 05:04:31;;;;;;;6.47;3.00;;;;;;;23.75;30.20;99971.13;5024290;28;20050;-67
2021/05/10 05:06:58;;;;;;;3.72;2.38;;;;;;;23.87;30.09;99976.78;5025195;28;20045;-71
2021/05/10 05:09:24;;;;;;;4.97;2.58;;;;;;;24.18;29.57;99966.22;5024380;28;20049;-68
2021/05/10 05:11:51;;;;;;;3.92;2.58;;;;;;;24.26;29.01;99967.06;5024618;28;20037;-68
2021/05/10 05:14:17;;;;;;;3.35;2.45;;;;;;;24.39;29.22;99977.84;5024332;28;20045;-67
2021/05/10 05:16:43;;;;;;;4.82;2.38;;;;;;;24.66;28.66;99973.28;5023764;28;20134;-68
2021/05/10 05:19:10;;;;;;;3.10;2.60;;;;;;;24.96;28.21;99967.41;5023871;28;20051;-69
2021/05/10 05:21:37;;;;;;;6.18;2.47;;;;;;;24.99;27.93;99966.94;5022661;28;20050;-69
2021/05/10 05:24:04;;;;;;;4.18;2.78;;;;;;;25.13;27.94;99973.16;5022404;28;20053;-70
2021/05/10 05:26:31;;;;;;;4.90;3.10;;;;;;;25.14;27.60;99972.13;5024152;28;20053;-68
2021/05/10 05:28:57;;;;;;;3.90;2.25;;;;;;;25.17;27.37;99968.97;5029527;28;20060;-67
2021/05/10 05:31:24;;;;;;;5.50;2.20;;;;;;;25.02;27.49;99963.00;5030701;28;20041;-67
2021/05/10 05:33:53;;;;;;;5.43;2.92;;;;;;;24.87;28.13;99976.78;5029824;28;20132;-69
2021/05/10 05:36:19;;;;;;;4.70;2.78;;;;;;;24.95;27.86;99971.13;4996036;28;20049;-69
2021/05/10 05:38:47;;;;;;;4.57;3.13;;;;;;;25.05;27.89;99976.06;5040783;28;20049;-70
2021/05/10 05:41:14;;;;;;;5.45;2.90;;;;;;;24.93;28.09;99973.22;5039192;28;20555;-70
2021/05/10 05:43:42;;;;;;;2.97;1.98;;;;;;;23.81;29.46;99973.88;5037955;28;20045;-70
2021/05/10 05:46:13;;;;;;;7.22;3.00;;;;;;;22.43;31.66;99981.84;5037829;28;20052;-67
2021/05/10 05:48:40;;;;;;;4.80;2.90;;;;;;;21.30;33.35;99976.16;5038017;28;20064;-70
2021/05/10 05:51:09;;;;;;;5.85;2.80;;;;;;;20.51;34.36;99979.38;5038938;28;20084;-69
2021/05/10 05:53:35;;;;;;;4.45;3.20;;;;;;;19.92;35.55;99973.84;5038063;28;20606;-69
2021/05/10 05:56:03;;;;;;;5.47;2.90;;;;;;;19.46;36.90;99975.44;5035876;28;20046;-70
2021/05/10 05:58:32;;;;;;;5.15;2.28;;;;;;;19.19;37.33;99982.06;5032231;28;20195;-70
2021/05/10 06:00:59;;;;;;;3.85;2.45;;;;;;;19.03;38.13;99980.31;5030591;28;20054;-70
2021/05/10 06:03:26;;;;;;;4.70;2.50;;;;;;;18.82;37.99;99980.88;5026710;28;20049;-68
2021/05/10 06:05:52;;;;;;;3.53;2.60;;;;;;;18.65;38.33;99972.00;5028526;28;20053;-68
2021/05/10 06:08:19;;;;;;;3.53;2.58;;;;;;;18.56;39.27;99982.91;5029981;28;20043;-68
2021/05/10 06:10:46;;;;;;;6.60;2.95;;;;;;;18.50;39.14;99977.25;5030236;28;20050;-67
2021/05/10 06:13:13;;;;;;;4.05;2.58;;;;;;;18.49;38.33;99978.25;5028505;28;20056;-70
2021/05/10 06:15:40;;;;;;;5.18;2.28;;;;;;;18.50;38.27;99971.88;5026004;28;20537;-68
2021/05/10 06:18:08;;;;;;;3.10;2.25;;;;;;;18.54;38.05;99973.22;5026183;28;20091;-68
2021/05/10 06:20:34;;;;;;;4.22;1.88;;;;;;;18.54;37.98;99978.56;5020830;28;20059;-68
2021/05/10 06:23:03;;;;;;;3.55;1.80;;;;;;;18.56;38.27;99967.69;5023363;28;20397;-69
2021/05/10 06:25:29;;;;;;;4.57;2.67;;;;;;;18.63;38.48;99973.22;5024877;28;20051;-67
2021/05/10 06:27:57;;;;;;;4.35;2.00;;;;;;;18.69;38.60;99973.38;5023412;28;20050;-67
2021/05/10 06:30:25;;;;;;;2.67;2.15;;;;;;;18.75;38.95;99971.03;5025712;28;20680;-70
2021/05/10 06:32:52;;;;;;;4.93;2.45;;;;;;;18.82;38.67;99966.69;5027918;28;20041;-68
2021/05/10 06:35:18;;;;;;;3.65;2.00;;;;;;;18.90;39.16;99972.81;5027913;28;20077;-71
2021/05/10 06:37:47;;;;;;;3.50;2.63;;;;;;;19.00;39.15;99971.81;5026345;28;20041;-68
2021/05/10 06:40:14;;;;;;;4.32;2.60;;;;;;;19.09;38.47;99962.72;5039576;28;20564;-69
2021/05/10 06:42:40;;;;;;;4.75;2.20;;;;;;;19.15;38.10;99961.19;5026869;28;20057;-69
2021/05/10 06:45:11;;;;;;;8.68;3.67;;;;;;;19.26;37.99;99969.66;5026873;28;20048;-69
2021/05/10 06:47:43;;;;;;;9.07;3.17;;;;;;;19.43;38.41;99972.28;5024153;28;20053;-69
2021/05/10 06:50:12;;;;;;;4.95;2.30;;;;;;;19.57;38.52;99970.69;5023444;28;20057;-71
2021/05/10 06:52:39;;;;;;;6.18;2.58;;;;;;;19.71;37.91;99969.09;5024192;28;20578;-71
2021/05/10 06:55:07;;;;;;;4.10;3.03;;;;;;;19.92;38.08;99969.31;5024338;28;20046;-68
2021/05/10 06:57:34;;;;;;;2.90;2.17;;;;;;;20.01;37.47;99970.09;5024708;28;20049;-70
2021/05/10 07:00:02;;;;;;;3.45;2.03;;;;;;;20.11;37.17;99954.56;5026678;28;20064;-68
2021/05/10 07:02:30;;;;;;;2.05;1.80;;;;;;;20.15;37.52;99966.63;5026599;28;20045;-68
2021/05/10 07:04:58;;;;;;;4.00;2.38;;;;;;;20.23;37.22;99965.72;4991974;28;20052;-69
2021/05/10 07:07:24;;;;;;;4.93;2.42;;;;;;;20.30;36.67;99955.91;4992200;28;20049;-69
2021/05/10 07:09:51;;;;;;;4.50;2.17;;;;;;;20.39;36.57;99957.50;5026400;28;20049;-68
2021/05/10 07:12:18;;;;;;;4.15;2.38;;;;;;;20.59;36.78;99955.13;5027691;28;20057;-70
2021/05/10 07:14:45;;;;;;;4.68;2.70;;;;;;;20.62;36.69;99959.34;5027867;28;20053;-70
2021/05/10 07:17:11;;;;;;;5.00;2.25;;;;;;;20.64;36.85;99959.16;5026683;28;20647;-70
2021/05/10 07:19:37;;;;;;;2.92;1.98;;;;;;;20.76;36.97;99950.47;5026266;28;20042;-69
2021/05/10 07:22:07;;;;;;;3.38;2.15;;;;;;;20.89;36.27;99959.72;5023712;28;20640;-70
2021/05/10 07:24:33;;;;;;;3.38;2.10;;;;;;;20.99;36.34;99957.56;5026516;28;20048;-68
2021/05/10 07:27:00;;;;;;;3.72;2.72;;;;;;;21.13;36.22;99950.50;5025614;28;20056;-68
2021/05/10 07:29:27;;;;;;;3.35;2.10;;;;;;;21.45;35.80;99956.47;5025372;28;20309;-69
2021/05/10 07:31:53;;;;;;;3.30;1.90;;;;;;;21.82;35.61;99950.06;5027748;28;20045;-69
2021/05/10 07:34:21;;;;;;;3.90;2.35;;;;;;;22.00;35.26;99954.16;5027063;28;20058;-70
2021/05/10 07:36:47;;;;;;;2.53;1.77;;;;;;;21.97;35.64;99950.00;5025182;28;20152;-70
2021/05/10 07:39:15;;;;;;;3.05;2.30;;;;;;;22.06;35.67;99950.72;5023521;28;20646;-70
2021/05/10 07:41:41;;;;;;;3.80;2.25;;;;;;;22.31;35.38;99949.28;5024179;28;20080;-69
2021/05/10 07:44:08;;;;;;;5.20;2.42;;;;;;;22.42;34.90;99950.59;5023851;28;20050;-68
2021/05/10 07:46:34;;;;;;;2.80;2.08;;;;;;;22.39;34.41;99950.16;5027881;28;20115;-68
2021/05/10 07:49:01;;;;;;;4.68;2.70;;;;;;;22.29;34.96;99954.03;5028952;28;20082;-68
2021/05/10 07:51:27;;;;;;;4.88;2.50;;;;;;;22.37;35.34;99949.53;5026174;28;20110;-69
2021/05/10 07:53:55;;;;;;;3.88;2.10;;;;;;;22.48;35.45;99943.59;5029538;28;20042;-72
2021/05/10 07:56:23;;;;;;;5.63;2.20;;;;;;;22.54;35.29;99945.50;5033217;28;20045;-69
2021/05/10 07:58:51;;;;;;;2.90;1.92;;;;;;;22.60;34.71;99947.41;5030868;28;20060;-70
2021/05/10 08:01:19;;;;;;;5.82;2.50;;;;;;;22.51;35.07;99944.03;5030442;28;20056;-69
2021/05/10 08:03:46;;;;;;;3.67;2.50;;;;;;;22.49;34.91;99940.72;5032623;28;20070;-69
2021/05/10 08:06:12;;;;;;;5.43;2.20;;;;;;;22.57;34.92;99937.03;5030350;28;20045;-68
2021/05/10 08:08:39;;;;;;;2.45;2.00;;;;;;;22.64;34.85;99934.41;5029904;28;20600;-69
2021/05/10 08:11:05;;;;;;;2.70;2.08;;;;;;;22.71;35.13;99933.41;5029199;28;20045;-68
2021/05/10 08:13:33;;;;;;;3.47;2.40;;;;;;;22.78;35.05;99928.06;5027339;28;20050;-69
2021/05/10 08:16:00;;;;;;;2.65;2.20;;;;;;;22.83;34.22;99922.06;5027616;28;20042;-68
2021/05/10 08:18:28;;;;;;;2.25;1.90;;;;;;;22.84;34.68;99926.41;5028611;28;20046;-70
2021/05/10 08:20:57;;;;;;;4.43;1.90;;;;;;;22.93;34.29;99925.22;5026589;28;20060;-68
2021/05/10 08:23:24;;;;;;;3.58;1.95;;;;;;;23.04;33.60;99923.81;5026568;28;20046;-69
2021/05/10 08:25:52;;;;;;;3.28;2.08;;;;;;;23.03;33.11;99927.53;5027176;28;20517;-71
2021/05/10 08:28:19;;;;;;;4.00;2.10;;;;;;;23.04;33.45;99913.03;5025538;28;20136;-67
2021/05/10 08:30:49;;;;;;;4.93;2.20;;;;;;;23.09;33.60;99907.91;5026699;28;20531;-71
2021/05/10 08:33:16;;;;;;;2.50;1.88;;;;;;;23.12;33.29;99909.38;5028736;28;20200;-69
2021/05/10 08:35:42;;;;;;;13.00;8.27;;;;;;;23.25;33.31;99910.25;5027130;28;20621;-70
2021/05/10 08:38:10;;;;;;;4.78;2.80;;;;;;;23.39;32.51;99903.03;4991828;28;20041;-70
2021/05/10 08:40:36;;;;;;;3.55;2.15;;;;;;;23.43;32.80;99900.78;5026660;28;20369;-70
2021/05/10 08:43:16;;;;;;;3.80;2.13;;;;;;;23.55;32.53;99907.22;5025838;28;20045;-69
2021/05/10 08:45:42;;;;;;;3.78;2.38;;;;;;;23.73;31.73;99903.91;5027511;28;20079;-70
2021/05/10 08:48:10;;;;;;;3.85;2.42;;;;;;;23.77;31.93;99904.31;5025031;28;20053;-70
2021/05/10 08:50:37;;;;;;;6.25;4.50;;;;;;;24.11;31.47;99911.44;5027899;28;20071;-71
2021/05/10 08:53:04;;;;;;;4.10;2.38;;;;;;;24.29;32.39;99907.25;5030663;28;20144;-70
2021/05/10 08:55:31;;;;;;;6.05;2.80;;;;;;;24.43;31.59;99915.16;5031516;28;20120;-70
2021/05/10 08:57:58;;;;;;;3.60;1.90;;;;;;;24.75;30.76;99911.75;5030127;28;20076;-72
2021/05/10 09:00:25;;;;;;;4.07;2.65;;;;;;;24.71;31.11;99903.25;5032157;28;20049;-70
2021/05/10 09:03:06;;;;;;;3.00;1.80;;;;;;;24.63;31.06;99897.25;5028789;28;20080;-70
2021/05/10 09:05:45;;;;;;;4.85;2.33;;;;;;;24.64;31.08;99904.31;5028689;28;20643;-69
2021/05/10 09:08:12;;;;;;;3.75;2.47;;;;;;;24.82;31.06;99895.53;5031526;28;20122;-70
2021/05/10 09:10:39;;;;;;;3.42;2.45;;;;;;;24.77;30.63;99902.41;5029550;28;20098;-70
2021/05/10 09:13:05;;;;;;;4.57;2.22;;;;;;;24.69;30.30;99899.13;5028008;28;20135;-69
2021/05/10 09:15:33;;;;;;;3.92;2.38;;;;;;;24.75;30.55;99890.16;5027144;28;20631;-70
2021/05/10 09:18:02;;;;;;;4.93;2.88;;;;;;;24.87;31.04;99893.84;5023212;28;20402;-69
2021/05/10 09:20:30;;;;;;;5.47;3.08;;;;;;;25.00;30.33;99893.78;5022630;28;20080;-69
2021/05/10 09:22:59;;;;;;;3.95;2.42;;;;;;;25.06;30.35;99892.09;5029907;28;20110;-71
2021/05/10 09:25:31;;;;;;;3.53;2.15;;;;;;;25.07;30.13;99895.66;5034624;28;20033;-71
2021/05/10 09:28:12;;;;;;;4.43;2.22;;;;;;;25.09;30.49;99880.88;5039175;28;20129;-70
2021/05/10 09:30:39;;;;;;;2.95;2.42;;;;;;;25.04;30.70;99882.56;5037369;28;20050;-70
2021/05/10 09:33:06;;;;;;;5.28;2.13;;;;;;;25.15;30.65;99876.47;5036794;28;20064;-69
2021/05/10 09:35:33;;;;;;;4.13;2.08;;;;;;;25.30;30.29;99881.59;5037357;28;20057;-68
2021/05/10 09:38:07;;;;;;;2.78;1.75;;;;;;;25.25;29.80;99874.16;5034765;28;20101;-68
2021/05/10 09:40:42;;;;;;;4.28;1.50;;;;;;;25.25;30.09;99878.75;5039257;28;20116;-69
2021/05/10 09:43:11;;;;;;;5.57;2.22;;;;;;;25.37;29.75;99877.00;5040618;28;20105;-70
2021/05/10 09:45:41;;;;;;;4.88;1.95;;;;;;;25.41;29.72;99877.38;5033837;28;20044;-71
2021/05/10 09:48:11;;;;;;;2.20;1.42;;;;;;;25.39;29.47;99877.63;5037134;28;20053;-73
2021/05/10 09:50:39;;;;;;;3.45;1.58;;;;;;;25.45;29.36;99879.44;5037451;28;20127;-72
2021/05/10 09:53:10;;;;;;;2.70;1.75;;;;;;;25.57;29.69;99879.59;5037444;28;20101;-71
2021/05/10 09:55:47;;;;;;;2.00;1.67;;;;;;;25.63;29.66;99867.88;5037490;28;20029;-72
2021/05/10 09:58:15;;;;;;;7.82;4.75;;;;;;;25.69;30.15;99874.28;5040295;28;20057;-71
2021/05/10 10:00:42;;;;;;;1.45;1.35;;;;;;;25.72;29.39;99874.66;5037523;28;20053;-72
2021/05/10 10:03:26;;;;;;;2.28;1.80;;;;;;;25.69;29.75;99871.56;5033993;28;20132;-72
2021/05/10 10:05:57;;;;;;;20.40;8.05;;;;;;;25.65;29.98;99867.66;5033722;28;20049;-73
2021/05/10 10:08:25;;;;;;;3.70;1.67;;;;;;;25.65;29.51;99871.19;5036237;28;20034;-73
2021/05/10 10:10:55;;;;;;;1.75;1.38;;;;;;;25.68;29.99;99868.06;5032562;28;20037;-73
2021/05/10 10:13:22;;;;;;;3.13;1.55;;;;;;;25.82;28.99;99876.06;5036363;28;20241;-71
2021/05/10 10:15:48;;;;;;;5.53;1.73;;;;;;;25.81;29.18;99867.13;5035250;28;20228;-72
2021/05/10 10:18:22;;;;;;;2.55;1.65;;;;;;;25.89;29.02;99874.97;5036351;28;20080;-72
2021/05/10 10:20:50;;;;;;;4.97;2.08;;;;;;;25.89;29.08;99866.00;5034139;28;20130;-73
2021/05/10 10:23:19;;;;;;;5.43;3.03;;;;;;;25.91;29.33;99863.91;5031830;28;20046;-74
2021/05/10 10:25:47;;;;;;;6.38;1.90;;;;;;;25.94;28.97;99856.19;5033539;28;20049;-73
2021/05/10 10:28:16;;;;;;;3.70;2.67;;;;;;;26.01;29.51;99868.84;5034233;28;20052;-74
2021/05/10 10:30:47;;;;;;;3.38;2.20;;;;;;;26.04;29.21;99863.81;5033641;28;20090;-72
2021/05/10 10:33:22;;;;;;;4.90;2.38;;;;;;;26.07;29.91;99857.97;5034340;28;20041;-75
2021/05/10 10:35:50;;;;;;;5.20;2.90;;;;;;;26.11;29.74;99856.47;5033716;28;20030;-72
2021/05/10 10:38:35;;;;;;;4.05;2.13;;;;;;;26.25;29.28;99859.03;5035750;28;20050;-71
2021/05/10 10:41:23;;;;;;;3.78;1.60;;;;;;;26.23;29.03;99858.44;5036064;28;20065;-71
2021/05/10 10:43:51;;;;;;;1.95;1.70;;;;;;;26.20;29.01;99850.75;5030367;28;20049;-72
2021/05/10 10:46:26;;;;;;;2.75;1.75;;;;;;;26.20;28.94;99839.94;5032247;28;20053;-72
2021/05/10 10:48:55;;;;;;;3.22;1.83;;;;;;;26.22;28.88;99843.25;5028583;28;20160;-73
2021/05/10 10:51:23;;;;;;;3.65;1.75;;;;;;;26.22;28.79;99829.72;5029743;28;20061;-73
2021/05/10 10:53:51;;;;;;;4.30;2.05;;;;;;;26.22;28.89;99844.09;5026894;28;20069;-72
2021/05/10 10:56:17;;;;;;;2.33;1.65;;;;;;;26.30;28.90;99835.66;5026701;28;20053;-73
2021/05/10 10:58:51;;;;;;;2.60;1.30;;;;;;;26.31;28.47;99840.03;5031227;28;20045;-72
2021/05/10 11:01:23;;;;;;;5.00;2.05;;;;;;;26.32;28.78;99835.44;5030700;28;20064;-72
2021/05/10 11:03:49;;;;;;;1.50;1.25;;;;;;;26.38;28.23;99839.13;5011184;28;20220;-72
2021/05/10 11:06:16;;;;;;;3.33;1.63;;;;;;;26.37;28.27;99822.06;5026999;28;20140;-73
2021/05/10 11:08:53;;;;;;;3.35;1.50;;;;;;;26.42;28.53;99821.38;5030418;28;20091;-72
2021/05/10 11:11:40;;;;;;;5.60;1.92;;;;;;;26.42;28.21;99822.19;5030289;28;20299;-74
2021/05/10 11:14:16;;;;;;;3.05;1.50;;;;;;;26.40;28.73;99824.31;5038263;28;20104;-73
2021/05/10 11:16:44;;;;;;;2.80;2.03;;;;;;;26.51;28.46;99818.13;5047128;28;20078;-69
2021/05/10 11:19:30;;;;;;;3.75;2.20;;;;;;;26.61;28.22;99812.19;5051886;28;20136;-69
2021/05/10 11:21:57;;;;;;;1.90;1.60;;;;;;;26.57;28.62;99815.56;5055186;28;20036;-69
2021/05/10 11:24:29;;;;;;;3.47;2.45;;;;;;;26.61;29.13;99819.50;5056135;28;20060;-70
2021/05/10 11:26:58;;;;;;;3.75;1.92;;;;;;;26.64;29.08;99824.47;5053324;28;20110;-70
2021/05/10 11:29:51;;;;;;;6.72;1.55;;;;;;;26.69;28.08;99825.44;5054179;28;20049;-69
2021/05/10 11:32:27;;;;;;;3.95;1.40;;;;;;;26.72;27.77;99826.03;5050479;28;20045;-70
2021/05/10 11:34:54;;;;;;;2.95;1.40;;;;;;;26.76;28.07;99819.09;5050826;28;20020;-70
2021/05/10 11:37:25;;;;;;;3.05;1.67;;;;;;;26.83;28.65;99804.44;5047155;28;20557;-69
2021/05/10 11:39:54;;;;;;;3.20;2.33;;;;;;;26.95;28.35;99798.22;5054436;28;20111;-70
2021/05/10 11:42:25;;;;;;;3.03;1.35;;;;;;;26.97;27.87;99796.94;5048911;28;20056;-69
2021/05/10 11:44:56;;;;;;;5.65;1.77;;;;;;;27.01;27.84;99798.16;5050929;28;20201;-70